Time;durP1;ratioP1;P1;durP2;ratioP2;P2;SDS_P1;SDS_P2;PMS_P1;PMS_P2;Temp;Humidity;BMP_temperature;BMP_pressure;BME280_temperature;BME280_humidity;BME280_pressure;Samples;Min_cycle;Max_cycle;Signal;HPM_P1;HPM_P2
2023/11/04 00:02:31;;;;;;;6.20;4.20;;;;;;;7.77;100.00;97800.38;108431;1284;23688;-79
2023/11/04 00:05:15;;;;;;;5.70;4.60;;;;;;;7.78;100.00;97805.34;108110;1289;22112;-78
2023/11/04 00:08:00;;;;;;;5.40;2.90;;;;;;;7.78;100.00;97817.43;108089;1281;22029;-78
2023/11/04 00:10:44;;;;;;;10.50;3.20;;;;;;;7.78;100.00;97820.86;107768;1292;22046;-79
2023/11/04 00:13:23;;;;;;;;;;;;;;;7.83;100.00;97824.57;104136;1292;5152472;-79
2023/11/04 00:16:08;;;;;;;8.90;3.50;;;;;;;7.81;100.00;97831.63;107966;1292;22994;-77
2023/11/04 00:19:05;;;;;;;6.80;3.00;;;;;;;7.79;100.00;97828.48;107948;1292;22374;-78
2023/11/04 00:21:41;;;;;;;6.20;3.90;;;;;;;7.88;100.00;97842.24;107839;1292;23431;-77
2023/11/04 00:24:23;;;;;;;4.20;2.40;;;;;;;7.90;100.00;97844.50;108177;1284;22584;-81
2023/11/04 00:26:59;;;;;;;5.60;3.60;;;;;;;7.90;100.00;97846.25;108294;1284;22149;-78
2023/11/04 00:30:04;;;;;;;3.70;3.00;;;;;;;7.89;100.00;97848.59;108619;1280;23062;-80
2023/11/04 00:33:14;;;;;;;6.10;3.60;;;;;;;7.84;100.00;97849.80;108702;1279;22016;-77
2023/11/04 00:36:38;;;;;;;4.10;2.90;;;;;;;7.82;100.00;97855.59;109030;1272;22023;-77
2023/11/04 00:39:31;;;;;;;6.10;3.30;;;;;;;7.84;100.00;97862.59;109344;1272;22002;-78
2023/11/04 00:42:11;;;;;;;5.10;2.80;;;;;;;7.83;100.00;97865.76;109151;1273;23043;-79
2023/11/04 00:45:08;;;;;;;7.00;3.70;;;;;;;7.91;100.00;97873.70;109144;1273;21984;-78
2023/11/04 00:47:58;;;;;;;4.60;3.80;;;;;;;7.96;100.00;97878.58;108927;1277;23058;-78
2023/11/04 00:50:51;;;;;;;6.70;4.80;;;;;;;7.98;100.00;97885.53;108741;1277;23623;-78
2023/11/04 00:53:59;;;;;;;7.00;5.60;;;;;;;7.98;100.00;97887.62;108490;1281;22009;-78
2023/11/04 00:57:08;;;;;;;5.00;4.40;;;;;;;7.96;100.00;97886.17;108588;1281;23654;-77
2023/11/04 00:59:59;;;;;;;5.20;4.10;;;;;;;7.99;100.00;97888.96;108580;1281;23523;-80
2023/11/04 01:02:44;;;;;;;9.50;3.70;;;;;;;8.05;100.00;97894.63;108610;1281;21989;-77
2023/11/04 01:05:58;;;;;;;5.00;3.30;;;;;;;7.97;100.00;97879.08;108570;1280;23061;-78
2023/11/04 01:08:42;;;;;;;5.50;3.20;;;;;;;8.00;100.00;97881.77;108779;1280;22009;-76
2023/11/04 01:11:32;;;;;;;5.80;3.40;;;;;;;8.15;100.00;97901.91;108771;1280;21994;-79
2023/11/04 01:14:20;;;;;;;3.60;3.30;;;;;;;8.15;100.00;97897.95;108404;1285;21994;-80
2023/11/04 01:17:24;;;;;;;4.40;2.80;;;;;;;8.14;100.00;97900.09;108306;1286;24357;-78
2023/11/04 01:20:15;;;;;;;4.00;3.00;;;;;;;8.14;100.00;97902.34;108449;1286;22034;-80
2023/11/04 01:23:33;;;;;;;4.00;3.20;;;;;;;8.14;100.00;97902.30;108411;1286;22125;-78
2023/11/04 01:26:13;;;;;;;4.70;3.90;;;;;;;8.18;100.00;97908.13;108542;1282;23705;-78
2023/11/04 01:29:12;;;;;;;8.30;4.10;;;;;;;8.21;100.00;97911.90;108491;1282;21998;-78
2023/11/04 01:31:56;;;;;;;9.20;4.80;;;;;;;8.25;100.00;97912.72;108604;1276;23060;-80
2023/11/04 01:35:36;;;;;;;5.60;3.90;;;;;;;8.28;100.00;97915.13;108893;1276;23649;-78
2023/11/04 01:38:24;;;;;;;7.20;3.70;;;;;;;8.31;100.00;97917.52;108909;1276;23053;-78
2023/11/04 01:41:10;;;;;;;5.10;3.30;;;;;;;8.34;100.00;97920.77;108878;1273;21998;-79
2023/11/04 01:47:07;;;;;;;4.90;3.10;;;;;;;8.35;100.00;97925.04;108787;1279;22010;-78
2023/11/04 01:49:59;;;;;;;3.80;2.10;;;;;;;8.36;100.00;97931.02;108856;1279;22176;-78
2023/11/04 01:53:16;;;;;;;2.90;2.30;;;;;;;8.35;100.00;97931.29;108501;1283;22866;-77
2023/11/04 01:56:29;;;;;;;3.50;2.20;;;;;;;8.31;100.00;97934.09;108518;1280;22742;-79
2023/11/04 01:59:14;;;;;;;4.40;2.90;;;;;;;8.34;100.00;97938.95;108570;1270;22021;-77
2023/11/04 02:02:06;;;;;;;4.60;2.70;;;;;;;8.35;100.00;97940.09;108433;1281;22004;-78
2023/11/04 02:04:55;;;;;;;5.20;2.70;;;;;;;8.37;100.00;97941.34;108383;1286;22107;-78
2023/11/04 02:07:53;;;;;;;3.70;2.30;;;;;;;8.39;100.00;97945.88;108340;1286;22006;-75
2023/11/04 02:10:50;;;;;;;4.60;2.50;;;;;;;8.41;100.00;97946.98;108325;1287;22762;-77
2023/11/04 02:13:37;;;;;;;7.60;2.90;;;;;;;8.41;100.00;97944.95;108098;1289;22083;-76
2023/11/04 02:16:40;;;;;;;4.10;3.10;;;;;;;8.40;100.00;97946.20;108044;1290;23634;-78
2023/11/04 02:19:56;;;;;;;4.80;3.90;;;;;;;8.41;100.00;97950.11;108023;1286;23075;-78
2023/11/04 02:22:38;;;;;;;5.20;4.70;;;;;;;8.41;100.00;97954.11;108530;1282;23654;-78
2023/11/04 02:25:45;;;;;;;;;;;;;;;;;;;;;
2023/11/04 02:28:32;;;;;;;6.40;5.70;;;;;;;8.36;100.00;97960.47;108622;1279;22795;-77
2023/11/04 02:31:45;;;;;;;6.40;5.10;;;;;;;8.37;100.00;97967.14;108659;1279;24443;-77
2023/11/04 02:34:32;;;;;;;6.10;5.50;;;;;;;8.38;100.00;97972.48;108799;1279;22501;-78
2023/11/04 02:37:35;;;;;;;8.00;5.50;;;;;;;8.40;100.00;97973.42;108605;1276;22088;-77
2023/11/04 02:40:21;;;;;;;7.10;5.40;;;;;;;8.44;100.00;97973.66;108886;1276;24911;-76
2023/11/04 02:43:06;;;;;;;7.10;5.70;;;;;;;8.44;100.00;97975.39;109070;1276;23142;-77
2023/11/04 02:45:58;;;;;;;10.20;5.10;;;;;;;8.45;100.00;97981.08;108915;1276;23678;-79
2023/11/04 02:48:56;;;;;;;7.40;5.30;;;;;;;8.46;100.00;97989.19;108888;1276;21989;-78
2023/11/04 02:51:53;;;;;;;9.30;5.70;;;;;;;8.46;100.00;97989.66;108583;1280;23785;-77
2023/11/04 02:54:58;;;;;;;5.30;4.80;;;;;;;8.47;100.00;97997.21;108600;1280;22003;-77
2023/11/04 02:57:41;;;;;;;5.80;4.70;;;;;;;8.48;100.00;97999.42;108615;1280;22026;-79
2023/11/04 03:00:30;;;;;;;5.70;4.40;;;;;;;8.45;100.00;98002.73;108540;1282;21988;-78
2023/11/04 03:03:10;;;;;;;;;;;;;;;8.43;100.00;98007.52;108163;1289;21987;-78
2023/11/04 03:05:57;;;;;;;5.00;4.20;;;;;;;8.34;100.00;98011.23;107914;1292;22007;-78
2023/11/04 03:08:41;;;;;;;7.90;4.70;;;;;;;8.34;100.00;98015.52;107726;1288;23766;-76
2023/11/04 03:11:44;;;;;;;5.40;4.10;;;;;;;8.36;100.00;98020.41;108034;1291;23731;-77
2023/11/04 03:14:46;;;;;;;5.00;4.50;;;;;;;8.36;100.00;98025.96;107950;1288;22076;-77
2023/11/04 03:17:43;;;;;;;6.10;3.60;;;;;;;8.40;100.00;98026.08;107885;1291;22012;-77
2023/11/04 03:20:42;;;;;;;8.40;4.00;;;;;;;8.43;100.00;98031.45;107592;1290;23064;-78
2023/11/04 03:23:27;;;;;;;5.60;4.20;;;;;;;8.46;100.00;98032.13;108077;1286;22008;-79
2023/11/04 03:26:17;;;;;;;;;;;;;;;;;;;;;
2023/11/04 03:29:15;;;;;;;;;;;;;;;8.47;100.00;98034.99;108528;1284;21979;-79
2023/11/04 03:32:03;;;;;;;7.90;5.50;;;;;;;8.41;100.00;98043.35;108147;1288;23058;-77
2023/11/04 03:34:59;;;;;;;6.60;5.20;;;;;;;8.41;100.00;98047.83;107648;1288;22041;-79
2023/11/04 03:37:58;;;;;;;7.00;4.30;;;;;;;8.43;100.00;98050.17;108246;1288;22084;-79
2023/11/04 03:40:42;;;;;;;5.60;4.40;;;;;;;8.44;100.00;98052.33;108212;1287;22057;-77
2023/11/04 03:43:33;;;;;;;5.20;4.10;;;;;;;8.45;100.00;98057.30;108319;1274;23081;-78
2023/11/04 03:46:22;;;;;;;5.50;4.40;;;;;;;8.47;100.00;98067.20;108279;1286;22081;-78
2023/11/04 03:49:06;;;;;;;4.30;3.80;;;;;;;8.49;100.00;98068.83;108345;1283;22021;-78
2023/11/04 03:52:09;;;;;;;7.80;4.20;;;;;;;8.53;100.00;98071.66;108438;1281;23066;-77
2023/11/04 03:55:26;;;;;;;8.80;5.00;;;;;;;8.56;100.00;98073.92;108553;1277;22017;-77
2023/11/04 03:58:28;;;;;;;7.80;4.20;;;;;;;8.53;100.00;98078.30;108741;1277;22869;-77
2023/11/04 04:01:14;;;;;;;6.10;4.40;;;;;;;8.50;100.00;98083.83;108949;1278;21993;-78
2023/11/04 04:04:00;;;;;;;6.60;4.50;;;;;;;8.49;100.00;98087.88;108915;1278;21983;-78
2023/11/04 04:06:40;;;;;;;5.80;4.00;;;;;;;8.50;100.00;98090.23;108796;1278;21997;-78
2023/11/04 04:09:14;;;;;;;5.00;3.10;;;;;;;8.53;100.00;98095.42;109019;1276;22753;-77
2023/11/04 04:11:54;;;;;;;4.10;3.10;;;;;;;8.56;100.00;98099.05;108636;1281;22517;-79
2023/11/04 04:14:37;;;;;;;;;;;;;;;8.57;100.00;98096.89;108638;1282;21983;-76
2023/11/04 04:17:21;;;;;;;5.10;3.20;;;;;;;8.48;100.00;98100.95;108548;1281;22092;-77
2023/11/04 04:20:17;;;;;;;6.80;3.20;;;;;;;8.48;100.00;98102.73;108420;1284;23643;-79
2023/11/04 04:23:01;;;;;;;4.00;2.70;;;;;;;8.49;100.00;98107.31;108471;1283;23711;-77
2023/11/04 04:25:44;;;;;;;3.50;2.90;;;;;;;8.53;100.00;98110.17;108438;1284;23066;-76
2023/11/04 04:28:20;;;;;;;7.80;3.50;;;;;;;8.58;100.00;98112.10;108086;1289;22024;-77
2023/11/04 04:30:53;;;;;;;5.00;3.20;;;;;;;8.61;100.00;98117.79;108015;1289;22168;-78
2023/11/04 04:33:38;;;;;;;8.30;7.30;;;;;;;8.64;100.00;98122.84;108020;1289;23054;-76
2023/11/04 04:36:20;;;;;;;25.80;22.30;;;;;;;8.67;100.00;98123.36;108137;1287;21996;-77
2023/11/04 04:39:01;;;;;;;6.60;4.70;;;;;;;8.70;100.00;98125.40;108448;1282;22105;-76
2023/11/04 04:41:56;;;;;;;7.80;4.60;;;;;;;8.69;100.00;98125.75;108517;1283;22077;-77
2023/11/04 04:44:43;;;;;;;7.10;3.40;;;;;;;8.71;100.00;98126.20;108480;1283;23647;-76
2023/11/04 04:47:39;;;;;;;;;;;;;;;;;;;;;
2023/11/04 04:50:19;;;;;;;;;;;;;;;8.74;100.00;98137.94;108470;1283;22658;-76
2023/11/04 04:53:02;;;;;;;10.20;3.10;;;;;;;8.64;100.00;98142.42;108250;1283;22030;-77
2023/11/04 04:55:40;;;;;;;7.90;3.50;;;;;;;8.61;100.00;98145.89;108601;1278;22359;-76
2023/11/04 04:58:22;;;;;;;8.90;3.70;;;;;;;8.64;100.00;98154.23;108831;1278;22008;-76
2023/11/04 05:01:01;;;;;;;6.40;3.60;;;;;;;8.65;100.00;98156.60;108740;1278;23603;-78
2023/11/04 05:03:46;;;;;;;6.70;3.40;;;;;;;8.66;100.00;98158.60;108845;1271;22782;-78
2023/11/04 05:06:28;;;;;;;5.00;3.00;;;;;;;8.64;100.00;98159.59;108835;1278;22861;-79
2023/11/04 05:09:30;;;;;;;9.30;3.70;;;;;;;8.63;100.00;98161.76;108593;1281;22009;-79
2023/11/04 05:12:14;;;;;;;9.10;3.30;;;;;;;8.63;100.00;98165.56;108795;1277;21988;-78
2023/11/04 05:15:04;;;;;;;6.10;3.10;;;;;;;8.65;100.00;98166.80;108819;1277;21984;-78
2023/11/04 05:17:57;;;;;;;5.00;2.80;;;;;;;8.66;100.00;98170.71;108812;1277;23070;-79
2023/11/04 05:21:02;;;;;;;6.30;3.30;;;;;;;8.65;100.00;98177.36;108915;1277;22004;-77
2023/11/04 05:24:02;;;;;;;6.50;3.30;;;;;;;8.66;100.00;98180.24;108786;1277;23453;-77
2023/11/04 05:26:43;;;;;;;7.80;3.90;;;;;;;8.68;100.00;98186.20;108630;1277;22453;-77
2023/11/04 05:29:45;;;;;;;;;;;;;;;;;;;;;
2023/11/04 05:32:51;;;;;;;8.60;4.00;;;;;;;8.64;100.00;98204.13;109145;1276;22008;-80
2023/11/04 05:36:30;;;;;;;7.10;4.40;;;;;;;8.65;100.00;98210.83;108739;1282;23068;-78
2023/11/04 05:39:21;;;;;;;8.90;5.70;;;;;;;8.65;100.00;98219.69;108784;1282;22029;-79
2023/11/04 05:42:20;;;;;;;6.90;5.10;;;;;;;8.71;100.00;98231.95;108735;1282;21997;-79
2023/11/04 05:45:08;;;;;;;6.70;3.90;;;;;;;8.76;100.00;98240.13;108888;1279;24256;-80
2023/11/04 05:48:13;;;;;;;4.80;3.20;;;;;;;8.76;100.00;98241.50;108929;1273;22457;-81
2023/11/04 05:50:56;;;;;;;8.10;3.70;;;;;;;8.76;100.00;98247.04;108944;1277;22008;-80
2023/11/04 05:53:56;;;;;;;6.70;3.70;;;;;;;8.76;100.00;98252.23;109297;1274;21872;-81
2023/11/04 05:57:05;;;;;;;10.80;3.70;;;;;;;8.81;100.00;98261.29;109388;1274;24333;-80
2023/11/04 06:00:09;;;;;;;6.60;3.60;;;;;;;8.84;100.00;98267.74;109475;1274;22044;-81
2023/11/04 06:03:09;;;;;;;6.60;4.30;;;;;;;8.79;100.00;98268.54;109508;1273;22998;-79
2023/11/04 06:06:02;;;;;;;10.50;8.00;;;;;;;8.82;100.00;98272.03;109558;1273;22025;-79
2023/11/04 06:09:02;;;;;;;12.20;4.90;;;;;;;8.86;100.00;98276.81;109363;1273;22010;-78
2023/11/04 06:12:07;;;;;;;8.40;3.60;;;;;;;8.82;100.00;98278.77;109361;1273;23721;-78
2023/11/04 06:15:16;;;;;;;10.40;3.40;;;;;;;8.82;100.00;98285.94;109485;1273;22657;-79
2023/11/04 06:18:27;;;;;;;6.70;3.30;;;;;;;8.83;100.00;98289.65;109414;1273;22755;-79
2023/11/04 06:21:22;;;;;;;4.60;3.00;;;;;;;8.81;100.00;98289.73;109682;1271;23718;-80
2023/11/04 06:24:12;;;;;;;10.60;2.70;;;;;;;8.82;100.00;98291.58;109151;1268;23666;-79
2023/11/04 06:27:04;;;;;;;8.50;3.40;;;;;;;8.85;100.00;98296.61;109298;1274;21982;-82
2023/11/04 06:30:05;;;;;;;12.50;3.40;;;;;;;8.88;100.00;98297.98;109502;1270;22000;-80
2023/11/04 06:32:46;;;;;;;6.70;3.40;;;;;;;8.92;100.00;98300.86;109409;1274;22501;-84
2023/11/04 06:35:31;;;;;;;7.10;3.80;;;;;;;8.91;100.00;98297.10;109502;1274;23066;-83
2023/11/04 06:38:20;;;;;;;11.60;4.40;;;;;;;8.92;100.00;98298.96;109298;1268;21993;-85
2023/11/04 06:40:58;;;;;;;8.40;3.50;;;;;;;8.96;100.00;98304.59;109317;1271;23026;-78
2023/11/04 06:43:38;;;;;;;5.70;3.20;;;;;;;8.97;100.00;98309.02;109486;1266;22005;-78
2023/11/04 06:46:11;;;;;;;8.30;3.40;;;;;;;9.01;100.00;98311.74;108897;1278;21999;-79
2023/11/04 06:48:49;;;;;;;7.20;3.80;;;;;;;9.01;100.00;98312.26;108791;1278;22177;-78
2023/11/04 06:51:23;;;;;;;6.40;3.60;;;;;;;9.05;100.00;98312.03;108810;1278;22006;-78
2023/11/04 06:54:05;;;;;;;6.30;3.00;;;;;;;9.11;100.00;98313.38;108802;1278;22005;-78
2023/11/04 06:57:01;;;;;;;5.30;3.20;;;;;;;9.15;100.00;98320.56;108892;1277;22117;-78
2023/11/04 06:59:35;;;;;;;;;;;;;;;9.20;100.00;98324.08;108458;1284;22047;-80
2023/11/04 07:02:32;;;;;;;5.90;3.80;;;;;;;9.11;100.00;98329.30;108425;1284;22013;-78
2023/11/04 07:05:10;;;;;;;8.40;3.80;;;;;;;9.14;100.00;98330.02;108239;1286;22002;-78
2023/11/04 07:07:51;;;;;;;;;;;;;;;;;;;;;
2023/11/04 07:10:37;;;;;;;8.90;3.80;;;;;;;9.12;100.00;98330.13;108590;1286;22433;-77
2023/11/04 07:13:17;;;;;;;11.20;4.40;;;;;;;9.12;100.00;98330.60;107974;1291;22016;-80
2023/11/04 07:16:00;;;;;;;9.70;4.40;;;;;;;9.14;100.00;98330.48;107985;1282;22034;-79
2023/11/04 07:22:09;;;;;;;9.60;4.90;;;;;;;9.28;100.00;98329.79;108394;1287;23066;-79
2023/11/04 07:25:04;;;;;;;6.20;4.40;;;;;;;9.37;100.00;98335.46;108444;1284;23653;-80
2023/11/04 07:27:36;;;;;;;7.10;3.90;;;;;;;9.47;100.00;98336.17;108665;1284;21999;-79
2023/11/04 07:30:28;;;;;;;6.10;3.60;;;;;;;9.58;100.00;98333.73;108714;1284;23931;-79
2023/11/04 07:33:19;;;;;;;6.10;3.30;;;;;;;9.65;100.00;98337.60;108643;1284;22009;-80
2023/11/04 07:36:02;;;;;;;9.10;4.50;;;;;;;9.70;100.00;98340.05;108623;1284;22008;-80
2023/11/04 07:38:47;;;;;;;13.80;5.50;;;;;;;9.76;100.00;98345.08;108926;1278;23734;-80
2023/11/04 07:41:27;;;;;;;12.50;5.50;;;;;;;9.81;100.00;98344.90;108705;1281;23722;-79
2023/11/04 07:44:11;;;;;;;12.10;5.10;;;;;;;9.87;100.00;98345.70;108430;1288;23627;-81
2023/11/04 07:46:59;;;;;;;9.60;4.60;;;;;;;9.89;100.00;98343.81;108233;1289;22085;-79
2023/11/04 07:49:47;;;;;;;11.90;4.40;;;;;;;9.90;100.00;98343.75;108282;1290;22008;-80
2023/11/04 07:52:29;;;;;;;9.80;4.90;;;;;;;9.89;100.00;98345.75;108059;1285;23067;-80
2023/11/04 07:55:32;;;;;;;11.50;4.90;;;;;;;9.85;100.00;98345.34;107749;1294;22017;-83
2023/11/04 07:58:04;;;;;;;9.50;5.20;;;;;;;9.85;100.00;98346.73;107672;1290;23078;-76
2023/11/04 08:00:49;;;;;;;12.50;5.80;;;;;;;9.90;100.00;98347.11;107796;1290;23088;-74
2023/11/04 08:03:23;;;;;;;17.00;6.60;;;;;;;9.99;100.00;98348.09;107716;1294;23093;-73
2023/11/04 08:05:57;;;;;;;13.60;8.80;;;;;;;10.03;100.00;98347.10;107767;1293;22006;-75
2023/11/04 08:08:42;;;;;;;16.00;8.10;;;;;;;10.08;100.00;98348.01;107785;1287;22101;-76
2023/11/04 08:11:26;;;;;;;13.30;7.30;;;;;;;10.13;100.00;98347.11;108009;1290;22789;-74
2023/11/04 08:13:59;;;;;;;12.40;5.80;;;;;;;10.27;100.00;98344.59;107917;1286;22072;-74
2023/11/04 08:16:30;;;;;;;10.10;6.90;;;;;;;10.51;100.00;98340.19;108392;1286;22964;-74
2023/11/04 08:19:16;;;;;;;64.60;11.30;;;;;;;10.77;100.00;98335.46;108361;1285;22067;-78
2023/11/04 08:21:51;;;;;;;11.60;5.80;;;;;;;10.89;100.00;98332.16;108796;1277;21968;-73
2023/11/04 08:24:26;;;;;;;13.80;5.70;;;;;;;11.00;100.00;98332.44;108872;1277;22138;-74
2023/11/04 08:27:02;;;;;;;12.50;6.00;;;;;;;11.18;100.00;98333.23;108541;1282;23012;-73
2023/11/04 08:30:17;;;;;;;;;;;;;;;;;;;;;
2023/11/04 08:33:55;;;;;;;10.10;4.10;;;;;;;11.83;100.00;98334.19;108763;1282;23200;-80
2023/11/04 08:37:21;;;;;;;10.30;6.60;;;;;;;12.13;100.00;98327.61;108705;1270;23103;-82
2023/11/04 08:40:52;;;;;;;14.50;6.40;;;;;;;12.32;100.00;98328.54;108753;1282;24435;-79
2023/11/04 08:44:41;;;;;;;;;;;;;;;;;;;;;
2023/11/04 08:48:27;;;;;;;8.80;7.90;;;;;;;12.80;100.00;98327.30;108393;1288;21852;-80
2023/11/04 08:52:05;;;;;;;;;;;;;;;;;;;;;
2023/11/04 08:55:02;;;;;;;14.10;7.50;;;;;;;13.21;100.00;98328.18;108994;1279;22014;-79
2023/11/04 08:59:00;;;;;;;;;;;;;;;;;;;;;
2023/11/04 09:02:03;;;;;;;10.60;6.00;;;;;;;13.59;100.00;98339.45;108562;1287;22015;-79
2023/11/04 09:05:01;;;;;;;15.10;7.10;;;;;;;13.76;100.00;98337.94;108260;1282;24242;-78
2023/11/04 09:08:23;;;;;;;10.40;4.80;;;;;;;14.03;100.00;98340.25;108519;1282;23776;-78
2023/11/04 09:11:25;;;;;;;7.10;4.70;;;;;;;14.32;100.00;98343.34;108530;1282;21993;-80
2023/11/04 09:14:40;;;;;;;;;;;;;;;;;;;;;
2023/11/04 09:17:17;;;;;;;13.40;4.30;;;;;;;14.41;100.00;98338.55;108586;1282;22000;-78
2023/11/04 09:20:48;;;;;;;9.60;5.30;;;;;;;14.48;100.00;98337.11;108755;1274;21989;-79
2023/11/04 09:23:41;;;;;;;6.70;4.90;;;;;;;14.67;100.00;98336.58;108592;1282;23673;-79
2023/11/04 09:26:58;;;;;;;9.30;4.70;;;;;;;14.78;100.00;98336.05;108487;1282;21992;-79
2023/11/04 09:29:58;;;;;;;8.50;5.40;;;;;;;14.77;100.00;98338.11;108266;1286;23132;-80
2023/11/04 09:33:33;;;;;;;6.50;2.50;;;;;;;14.65;100.00;98344.28;108214;1287;22745;-80
2023/11/04 09:36:23;;;;;;;6.40;4.30;;;;;;;14.63;100.00;98346.70;108067;1292;22230;-80
2023/11/04 09:38:56;;;;;;;17.30;10.00;;;;;;;14.51;100.00;98346.98;107746;1289;22035;-79
2023/11/04 09:41:32;;;;;;;11.00;6.20;;;;;;;14.34;100.00;98346.16;108253;1285;22020;-79
2023/11/04 09:44:40;;;;;;;;;;;;;;;;;;;;;
2023/11/04 09:47:20;;;;;;;14.70;8.20;;;;;;;14.03;100.00;98342.85;108351;1286;21995;-80
2023/11/04 09:50:10;;;;;;;10.60;6.60;;;;;;;14.15;100.00;98337.05;108625;1286;22159;-80
2023/11/04 09:52:55;;;;;;;19.10;7.80;;;;;;;14.38;100.00;98333.56;108414;1285;21996;-79
2023/11/04 09:55:48;;;;;;;7.00;3.90;;;;;;;14.50;100.00;98337.45;108451;1285;23705;-81
2023/11/04 09:58:45;;;;;;;11.00;3.90;;;;;;;14.59;100.00;98336.70;108921;1281;23858;-80
2023/11/04 10:01:25;;;;;;;6.40;3.70;;;;;;;14.70;100.00;98330.57;108847;1281;23718;-80
2023/11/04 10:04:21;;;;;;;6.30;3.90;;;;;;;14.78;100.00;98331.17;108986;1281;22287;-78
2023/11/04 10:07:00;;;;;;;7.50;3.90;;;;;;;14.76;100.00;98324.85;108381;1280;21999;-80
2023/11/04 10:09:39;;;;;;;10.00;4.00;;;;;;;14.69;100.00;98334.93;108252;1286;22062;-80
2023/11/04 10:12:23;;;;;;;14.80;5.60;;;;;;;14.47;100.00;98333.91;108536;1280;22048;-79
2023/11/04 10:15:14;;;;;;;9.20;4.30;;;;;;;14.24;100.00;98331.64;108788;1281;23647;-80
2023/11/04 10:18:01;;;;;;;12.20;5.50;;;;;;;14.06;100.00;98317.73;109032;1278;21994;-78
2023/11/04 10:20:50;;;;;;;11.20;6.80;;;;;;;14.14;100.00;98320.89;109089;1278;21989;-79
2023/11/04 10:23:35;;;;;;;16.60;7.30;;;;;;;14.17;100.00;98316.96;108846;1278;24321;-79
2023/11/04 10:26:33;;;;;;;11.90;5.20;;;;;;;14.26;100.00;98310.59;108834;1278;22004;-79
2023/11/04 10:29:11;;;;;;;11.10;3.60;;;;;;;14.40;100.00;98309.42;108601;1282;22087;-78
2023/11/04 10:31:48;;;;;;;14.00;4.50;;;;;;;14.41;100.00;98308.10;108755;1278;21990;-78
2023/11/04 10:34:40;;;;;;;11.90;4.40;;;;;;;14.30;100.00;98303.85;108847;1278;21990;-78
2023/11/04 10:37:25;;;;;;;10.20;4.90;;;;;;;14.22;100.00;98308.85;108445;1284;22829;-82
2023/11/04 10:40:21;;;;;;;15.60;4.00;;;;;;;14.31;100.00;98309.54;108661;1274;22013;-78
2023/11/04 10:43:09;;;;;;;16.80;5.80;;;;;;;14.37;100.00;98306.72;108670;1283;21997;-79
2023/11/04 10:46:19;;;;;;;15.20;4.60;;;;;;;14.15;100.00;98307.20;108628;1283;22002;-81
2023/11/04 10:49:29;;;;;;;;;;;;;;;13.83;100.00;98291.54;108904;1278;23725;-79
2023/11/04 10:52:23;;;;;;;15.60;10.40;;;;;;;13.68;100.00;98295.70;109130;1275;23102;-78
2023/11/04 10:55:12;;;;;;;8.30;5.30;;;;;;;14.00;100.00;98289.42;109126;1272;22035;-78
2023/11/04 10:58:07;;;;;;;7.00;4.40;;;;;;;14.33;100.00;98283.91;108886;1277;22000;-77
2023/11/04 11:00:51;;;;;;;7.30;3.50;;;;;;;14.28;100.00;98284.21;108985;1277;21987;-76
2023/11/04 11:03:35;;;;;;;7.40;3.40;;;;;;;14.12;100.00;98284.21;108863;1277;22419;-78
2023/11/04 11:06:47;;;;;;;10.80;4.50;;;;;;;13.91;100.00;98285.92;108697;1282;23913;-79
2023/11/04 11:09:28;;;;;;;12.00;4.70;;;;;;;13.89;100.00;98282.27;108460;1282;22998;-78
2023/11/04 11:12:23;;;;;;;13.50;5.10;;;;;;;13.89;100.00;98286.33;108187;1287;22007;-77
2023/11/04 11:15:01;;;;;;;18.00;4.60;;;;;;;13.66;100.00;98285.73;108229;1283;21995;-78
2023/11/04 11:17:37;;;;;;;15.80;4.60;;;;;;;13.56;100.00;98285.38;108404;1283;23084;-77
2023/11/04 11:20:36;;;;;;;11.70;4.50;;;;;;;13.56;100.00;98277.65;108453;1283;21993;-78
2023/11/04 11:23:29;;;;;;;9.80;3.40;;;;;;;13.59;100.00;98286.89;108444;1283;22002;-79
2023/11/04 11:26:13;;;;;;;8.40;3.00;;;;;;;13.39;100.00;98274.56;108467;1281;22000;-79
2023/11/04 11:28:50;;;;;;;9.40;3.90;;;;;;;13.30;100.00;98278.08;108462;1284;22979;-79
2023/11/04 11:31:44;;;;;;;11.60;4.80;;;;;;;13.28;100.00;98271.55;108579;1279;22058;-77
2023/11/04 11:34:36;;;;;;;9.90;3.70;;;;;;;13.29;100.00;98270.62;108871;1277;21994;-77
2023/11/04 11:37:50;;;;;;;;;;;;;;;;;;;;;
2023/11/04 11:42:40;;;;;;;;;;;;;;;;;;;;;
2023/11/04 11:46:32;;;;;;;;;;;;;;;;;;;;;
2023/11/04 11:53:42;;;;;;;13.90;8.60;;;;;;;13.13;100.00;98264.30;107704;1294;22215;-79
2023/11/04 11:56:30;;;;;;;9.10;5.10;;;;;;;13.16;100.00;98261.23;107929;1293;22016;-79
2023/11/04 12:00:02;;;;;;;;;;;;;;;;;;;;;
2023/11/04 12:02:55;;;;;;;8.90;4.60;;;;;;;13.09;100.00;98255.52;107742;1293;22244;-80
2023/11/04 12:05:53;;;;;;;11.40;3.80;;;;;;;13.01;100.00;98245.68;107857;1294;23024;-79
2023/11/04 12:08:49;;;;;;;11.10;4.90;;;;;;;12.93;100.00;98233.95;107914;1292;22014;-81
2023/11/04 12:13:03;;;;;;;;;;;;;;;;;;;;;
2023/11/04 12:17:16;;;;;;;8.40;4.10;;;;;;;12.74;100.00;98219.05;102928;1296;22074;-82
2023/11/04 12:20:44;;;;;;;;;;;;;;;;;;;;;
2023/11/04 12:24:19;;;;;;;14.00;5.00;;;;;;;12.79;100.00;98226.64;107509;1298;22181;-80
2023/11/04 12:27:15;;;;;;;20.40;16.50;;;;;;;12.69;100.00;98230.56;107361;1299;22024;-81
2023/11/04 12:30:01;;;;;;;12.60;6.80;;;;;;;12.54;100.00;98230.40;107415;1290;22044;-78
2023/11/04 12:36:58;;;;;;;15.60;7.30;;;;;;;12.40;100.00;98228.91;108161;1291;23634;-81
2023/11/04 12:39:55;;;;;;;17.40;7.20;;;;;;;12.48;100.00;98222.48;108212;1291;22471;-78
2023/11/04 12:42:36;;;;;;;11.30;4.80;;;;;;;12.56;100.00;98218.70;107986;1291;22174;-80
2023/11/04 12:45:35;;;;;;;6.90;3.70;;;;;;;12.63;100.00;98212.95;107955;1283;23800;-79
2023/11/04 12:48:37;;;;;;;7.00;3.20;;;;;;;12.55;100.00;98213.55;108051;1291;22018;-81
2023/11/04 12:51:34;;;;;;;7.40;3.40;;;;;;;12.43;100.00;98215.17;108179;1283;23777;-78
2023/11/04 12:54:24;;;;;;;6.90;4.00;;;;;;;12.33;100.00;98211.86;108195;1289;23257;-77
2023/11/04 12:58:03;;;;;;;10.00;4.50;;;;;;;12.26;100.00;98206.21;108328;1280;22063;-83
2023/11/04 13:01:42;;;;;;;8.20;4.60;;;;;;;12.13;100.00;98194.55;108709;1277;23039;-78
2023/11/04 13:05:26;;;;;;;6.30;3.00;;;;;;;12.04;100.00;98200.81;108633;1273;22686;-81
2023/11/04 13:11:36;;;;;;;11.60;6.30;;;;;;;11.83;100.00;98205.78;108270;1289;22177;-79
2023/11/04 13:14:23;;;;;;;11.20;6.90;;;;;;;11.84;100.00;98200.27;108247;1288;22011;-82
2023/11/04 13:18:14;;;;;;;7.10;4.40;;;;;;;11.82;100.00;98195.86;108205;1289;22004;-81
2023/11/04 13:33:23;;;;;;;8.30;4.70;;;;;;;13.43;100.00;98188.44;108284;1282;557669;-82
2023/11/04 13:37:22;;;;;;;;;;;;;;;;;;;;;
2023/11/04 13:48:28;;;;;;;;;;;;;;;;;;;;;
2023/11/04 13:52:02;;;;;;;8.20;3.50;;;;;;;11.90;100.00;98181.00;107817;1294;22007;-81
2023/11/04 13:55:43;;;;;;;7.70;5.00;;;;;;;11.85;100.00;98178.73;107788;1295;22010;-84
2023/11/04 13:58:30;;;;;;;8.90;5.30;;;;;;;11.79;100.00;98172.96;107782;1294;22279;-81
2023/11/04 14:01:34;;;;;;;9.20;4.60;;;;;;;11.74;100.00;98163.55;107470;1294;22010;-80
2023/11/04 14:05:08;;;;;;;8.10;4.40;;;;;;;11.73;100.00;98163.30;107420;1295;22049;-82
2023/11/04 14:08:19;;;;;;;;;;;;;;;;;;;;;
2023/11/04 14:12:15;;;;;;;8.30;5.70;;;;;;;11.79;100.00;98158.13;107864;1293;544476;-81
2023/11/04 14:15:34;;;;;;;24.60;4.60;;;;;;;11.74;100.00;98160.07;110093;1269;23701;-81
2023/11/04 14:18:37;;;;;;;13.30;5.10;;;;;;;11.59;100.00;98151.11;110187;1266;22347;-82
2023/11/04 14:21:47;;;;;;;34.30;6.50;;;;;;;11.56;100.00;98150.50;110204;1267;23785;-81
2023/11/04 14:24:44;;;;;;;14.80;5.00;;;;;;;11.59;100.00;98162.08;102067;1268;10195128;-82
2023/11/04 14:27:51;;;;;;;13.70;5.40;;;;;;;11.57;100.00;98159.13;110133;1268;22322;-83
2023/11/04 14:31:27;;;;;;;9.30;4.50;;;;;;;11.51;100.00;98147.19;110070;1269;21980;-81
2023/11/04 14:34:47;;;;;;;10.00;3.30;;;;;;;11.46;100.00;98155.24;109155;1275;23386;-79
2023/11/04 14:37:53;;;;;;;5.00;3.60;;;;;;;11.39;100.00;98148.80;108630;1284;23002;-79
2023/11/04 14:41:36;;;;;;;28.20;4.40;;;;;;;11.30;100.00;98127.38;108507;1285;22784;-81
2023/11/04 14:45:28;;;;;;;;;;;;;;;;;;;;;
2023/11/04 14:49:36;;;;;;;;;;;;;;;;;;;;;
2023/11/04 14:53:13;;;;;;;1.50;1.40;;;;;;;10.96;100.00;98124.92;108102;1292;22028;-83